createdAt,value
2017-02-18T00:00:51.910Z,21.83
2017-02-18T00:01:51.931Z,21.84
2017-02-18T00:02:52.201Z,21.86
2017-02-18T00:03:52.390Z,21.86
2017-02-18T00:04:52.010Z,21.82
2017-02-18T00:05:52.031Z,21.8
2017-02-18T00:06:52.064Z,21.8
2017-02-18T00:07:52.341Z,21.82
2017-02-18T00:08:52.118Z,21.86
2017-02-18T00:09:52.550Z,21.8
2017-02-18T00:10:52.571Z,21.83
2017-02-18T00:11:52.224Z,21.77
2017-02-18T00:12:52.889Z,21.79
2017-02-18T00:13:51.862Z,21.72
2017-02-18T00:14:52.690Z,21.79
2017-02-18T00:15:52.318Z,21.8
2017-02-18T00:16:52.351Z,21.67
2017-02-18T00:17:51.976Z,21.83
2017-02-18T00:18:52.005Z,21.69
2017-02-18T00:19:52.814Z,21.69
2017-02-18T00:20:52.451Z,21.72
2017-02-18T00:21:52.471Z,21.67
2017-02-18T00:22:52.905Z,21.71
2017-02-18T00:23:52.525Z,21.72
2017-02-18T00:24:52.234Z,21.68
2017-02-18T00:25:52.187Z,21.69
2017-02-18T00:26:53.019Z,21.65
2017-02-18T00:27:52.244Z,21.71
2017-02-18T00:28:52.677Z,21.68
2017-02-18T00:29:52.693Z,21.65
2017-02-18T00:30:53.129Z,21.74
2017-02-18T00:31:52.359Z,21.62
2017-02-18T00:32:52.791Z,21.59
2017-02-18T00:33:52.800Z,21.64
2017-02-18T00:34:53.231Z,21.68
2017-02-18T00:35:52.861Z,21.62
2017-02-18T00:36:52.495Z,21.56
2017-02-18T00:37:52.541Z,21.69
2017-02-18T00:38:52.937Z,21.59
2017-02-18T00:39:52.969Z,21.61
2017-02-18T00:40:52.994Z,21.56
2017-02-18T00:41:53.026Z,21.53
2017-02-18T00:42:53.048Z,21.59
2017-02-18T00:43:53.076Z,21.58
2017-02-18T00:44:53.109Z,21.61
2017-02-18T00:45:53.129Z,21.58
2017-02-18T00:46:53.568Z,21.5
2017-02-18T00:47:53.591Z,21.49
2017-02-18T00:48:53.225Z,21.52
2017-02-18T00:49:53.637Z,21.54
2017-02-18T00:50:53.284Z,21.59
2017-02-18T00:51:53.301Z,21.53
2017-02-18T00:52:53.325Z,21.58
2017-02-18T00:53:53.599Z,21.58
2017-02-18T00:54:53.009Z,21.5
2017-02-18T00:55:53.818Z,21.46
2017-02-18T00:56:53.433Z,21.46
2017-02-18T00:57:53.852Z,21.47
2017-02-18T00:58:53.347Z,21.44
2017-02-18T00:59:53.916Z,21.49
2017-02-18T01:00:53.933Z,21.47
2017-02-18T01:01:53.966Z,21.54
2017-02-18T01:02:54.003Z,21.5
2017-02-18T01:03:53.880Z,21.49
2017-02-18T01:04:53.659Z,21.46
2017-02-18T01:05:53.672Z,21.42
2017-02-18T01:06:53.732Z,21.47
2017-02-18T01:07:53.730Z,21.5
2017-02-18T01:08:54.031Z,21.44
2017-02-18T01:09:53.785Z,21.47
2017-02-18T01:10:53.825Z,21.44
2017-02-18T01:11:53.853Z,21.44
2017-02-18T01:12:53.483Z,21.42
2017-02-18T01:13:54.151Z,21.46
2017-02-18T01:14:54.323Z,21.38
2017-02-18T01:15:54.356Z,21.38
2017-02-18T01:16:53.984Z,21.34
2017-02-18T01:17:54.013Z,21.34
2017-02-18T01:18:54.674Z,21.49
2017-02-18T01:19:54.475Z,21.38
2017-02-18T01:20:54.091Z,21.37
2017-02-18T01:21:54.509Z,21.38
2017-02-18T01:22:53.748Z,21.4
2017-02-18T01:23:54.025Z,21.42
2017-02-18T01:24:53.799Z,21.34
2017-02-18T01:25:53.831Z,21.37
2017-02-18T01:26:54.648Z,21.42
2017-02-18T01:27:54.673Z,21.4
2017-02-18T01:28:54.946Z,21.4
2017-02-18T01:29:54.358Z,21.31
2017-02-18T01:30:54.367Z,21.34
2017-02-18T01:31:54.404Z,21.42
2017-02-18T01:32:54.437Z,21.32
2017-02-18T01:33:54.053Z,21.4
2017-02-18T01:34:54.062Z,21.25
2017-02-18T01:35:54.499Z,21.32
2017-02-18T01:36:54.124Z,21.27
2017-02-18T01:37:54.949Z,21.32
2017-02-18T01:38:54.586Z,21.29
2017-02-18T01:39:55.002Z,21.31
2017-02-18T01:40:55.038Z,21.28
2017-02-18T01:41:54.650Z,21.29
2017-02-18T01:42:55.092Z,21.22
2017-02-18T01:43:55.121Z,21.19
2017-02-18T01:44:54.750Z,21.22
2017-02-18T01:45:54.766Z,21.35
2017-02-18T01:46:54.799Z,21.21
2017-02-18T01:47:54.820Z,21.24
2017-02-18T01:48:54.848Z,21.24
2017-02-18T01:49:54.476Z,21.27
2017-02-18T01:50:54.522Z,21.28
2017-02-18T01:51:54.926Z,21.24
2017-02-18T01:52:54.959Z,21.28
2017-02-18T01:53:55.390Z,21.25
2017-02-18T01:54:55.013Z,21.25
2017-02-18T01:55:55.447Z,21.28
2017-02-18T01:56:54.681Z,21.24
2017-02-18T01:57:55.104Z,21.29
2017-02-18T01:58:55.516Z,21.27
2017-02-18T01:59:55.545Z,21.34
2017-02-18T02:00:55.564Z,21.29
2017-02-18T02:01:55.607Z,21.27
2017-02-18T02:02:55.626Z,21.21
2017-02-18T02:03:55.664Z,21.25
2017-02-18T02:04:55.281Z,21.24
2017-02-18T02:05:55.706Z,21.24
2017-02-18T02:06:55.350Z,21.28
2017-02-18T02:07:55.365Z,21.27
2017-02-18T02:08:55.008Z,21.25
2017-02-18T02:09:55.680Z,21.16
2017-02-18T02:10:55.861Z,21.14
2017-02-18T02:11:55.462Z,21.19
2017-02-18T02:12:55.511Z,21.16
2017-02-18T02:13:55.531Z,21.16
2017-02-18T02:14:55.820Z,21.17
2017-02-18T02:15:55.185Z,21.14
2017-02-18T02:16:56.062Z,21.22
2017-02-18T02:17:56.031Z,21.19
2017-02-18T02:18:56.059Z,21.13
2017-02-18T02:19:56.341Z,21.19
2017-02-18T02:20:56.121Z,21.12
2017-02-18T02:21:55.745Z,21.19
2017-02-18T02:22:56.165Z,21.17
2017-02-18T02:23:55.807Z,21.16
2017-02-18T02:24:56.075Z,21.13
2017-02-18T02:25:55.876Z,21.19
2017-02-18T02:26:55.881Z,21.16
2017-02-18T02:27:56.302Z,21.21
2017-02-18T02:28:55.943Z,21.17
2017-02-18T02:29:56.608Z,21.09
2017-02-18T02:30:56.385Z,21.14
2017-02-18T02:31:56.017Z,21.13
2017-02-18T02:32:56.042Z,21.09
2017-02-18T02:33:56.486Z,21.16
2017-02-18T02:34:56.351Z,21.09
2017-02-18T02:35:55.731Z,21.14
2017-02-18T02:36:55.773Z,21.19
2017-02-18T02:37:55.790Z,21.13
2017-02-18T02:38:56.614Z,21.16
2017-02-18T02:39:56.086Z,21.13
2017-02-18T02:40:56.662Z,21.17
2017-02-18T02:41:56.281Z,21.13
2017-02-18T02:42:56.322Z,21.12
2017-02-18T02:43:56.721Z,21.16
2017-02-18T02:44:57.026Z,21.1
2017-02-18T02:45:56.390Z,21.1
2017-02-18T02:46:56.825Z,21.06
2017-02-18T02:47:56.449Z,21.12
2017-02-18T02:48:56.870Z,21.04
2017-02-18T02:49:56.377Z,21.09
2017-02-18T02:50:56.526Z,21.12
2017-02-18T02:51:56.953Z,21.06
2017-02-18T02:52:56.575Z,21.12
2017-02-18T02:53:57.005Z,21.09
2017-02-18T02:54:57.286Z,21.12
2017-02-18T02:55:57.062Z,21.04
2017-02-18T02:56:57.084Z,21.07
2017-02-18T02:57:56.720Z,21.06
2017-02-18T02:58:56.750Z,21.07
2017-02-18T02:59:56.773Z,21.07
2017-02-18T03:00:56.413Z,21.13
2017-02-18T03:01:56.838Z,21.06
2017-02-18T03:02:56.852Z,21.07
2017-02-18T03:03:56.485Z,21.07
2017-02-18T03:04:56.514Z,21.03
2017-02-18T03:05:56.541Z,21.06
2017-02-18T03:06:57.367Z,20.95
2017-02-18T03:07:57.393Z,21.04
2017-02-18T03:08:57.412Z,21.03
2017-02-18T03:09:57.446Z,21.04
2017-02-18T03:10:57.462Z,20.97
2017-02-18T03:11:57.099Z,21.03
2017-02-18T03:12:57.184Z,21.07
2017-02-18T03:13:57.556Z,21.03
2017-02-18T03:14:56.781Z,21.01
2017-02-18T03:15:57.450Z,21.06
2017-02-18T03:16:57.639Z,20.98
2017-02-18T03:17:57.251Z,21.03
2017-02-18T03:18:57.684Z,21.04
2017-02-18T03:19:57.696Z,21.06
2017-02-18T03:20:57.978Z,20.95
2017-02-18T03:21:57.775Z,21.04
2017-02-18T03:22:57.011Z,21.04
2017-02-18T03:23:57.411Z,21.01
2017-02-18T03:24:57.044Z,20.99
2017-02-18T03:25:58.117Z,20.98
2017-02-18T03:26:57.910Z,20.97
2017-02-18T03:27:57.532Z,21.06
2017-02-18T03:28:57.960Z,21.12
2017-02-18T03:29:57.600Z,20.91
2017-02-18T03:30:57.460Z,20.99
2017-02-18T03:31:58.037Z,20.95
2017-02-18T03:32:58.063Z,20.99
2017-02-18T03:33:57.698Z,20.94
2017-02-18T03:34:57.736Z,21.04
2017-02-18T03:35:58.388Z,20.94
2017-02-18T03:36:58.164Z,21.01
2017-02-18T03:37:57.813Z,21.04
2017-02-18T03:38:57.443Z,20.95
2017-02-18T03:39:58.252Z,20.98
2017-02-18T03:40:58.536Z,20.99
2017-02-18T03:41:58.308Z,20.98
2017-02-18T03:42:58.333Z,20.98
2017-02-18T03:43:58.351Z,21.01
2017-02-18T03:44:58.375Z,20.95
2017-02-18T03:45:58.268Z,20.99
2017-02-18T03:46:58.443Z,20.98
2017-02-18T03:47:58.474Z,20.91
2017-02-18T03:48:57.700Z,20.98
2017-02-18T03:49:58.127Z,20.97
2017-02-18T03:50:58.395Z,20.97
2017-02-18T03:51:58.182Z,20.98
2017-02-18T03:52:57.825Z,20.94
2017-02-18T03:53:57.838Z,21.01
2017-02-18T03:54:57.855Z,20.95
2017-02-18T03:55:57.889Z,20.99
2017-02-18T03:56:57.927Z,21.03
2017-02-18T03:57:58.347Z,20.95
2017-02-18T03:58:58.770Z,20.92
2017-02-18T03:59:58.404Z,20.92
2017-02-18T04:00:58.827Z,20.92
2017-02-18T04:01:58.848Z,20.95
2017-02-18T04:02:58.879Z,20.95
2017-02-18T04:03:58.905Z,20.97
2017-02-18T04:04:58.915Z,21.01
2017-02-18T04:05:58.543Z,20.98
2017-02-18T04:06:58.183Z,20.94
2017-02-18T04:07:59.025Z,20.98
2017-02-18T04:08:58.633Z,20.97
2017-02-18T04:09:58.660Z,20.97
2017-02-18T04:10:58.688Z,20.98
2017-02-18T04:11:58.577Z,20.98
2017-02-18T04:12:58.736Z,20.95
2017-02-18T04:13:58.767Z,20.98
2017-02-18T04:14:59.194Z,20.98
2017-02-18T04:15:58.443Z,20.99
2017-02-18T04:16:59.109Z,20.94
2017-02-18T04:17:59.277Z,20.95
2017-02-18T04:18:59.347Z,20.95
2017-02-18T04:19:58.933Z,20.89
2017-02-18T04:20:58.957Z,20.88
2017-02-18T04:21:59.640Z,20.85
2017-02-18T04:22:59.471Z,20.82
2017-02-18T04:23:59.033Z,20.91
2017-02-18T04:24:59.066Z,20.87
2017-02-18T04:25:59.483Z,20.91
2017-02-18T04:26:59.367Z,20.87
2017-02-18T04:27:59.543Z,20.91
2017-02-18T04:28:59.573Z,20.87
2017-02-18T04:29:58.804Z,20.85
2017-02-18T04:30:59.236Z,20.89
2017-02-18T04:31:59.514Z,20.85
2017-02-18T04:32:58.892Z,20.89
2017-02-18T04:33:59.303Z,20.89
2017-02-18T04:34:58.927Z,20.88
2017-02-18T04:35:59.362Z,20.94
2017-02-18T04:36:59.247Z,20.87
2017-02-18T04:37:59.412Z,20.87
2017-02-18T04:38:59.836Z,20.84
2017-02-18T04:39:59.457Z,20.91
2017-02-18T04:40:59.902Z,20.88
2017-02-18T04:41:59.762Z,20.89
2017-02-18T04:42:59.947Z,20.91
2017-02-18T04:43:59.969Z,20.8
2017-02-18T04:44:59.604Z,20.85
2017-02-18T04:46:00.032Z,20.88
2017-02-18T04:46:59.919Z,20.89
2017-02-18T04:47:59.683Z,20.91
2017-02-18T04:49:00.102Z,20.89
2017-02-18T04:49:59.735Z,20.84
2017-02-18T04:50:59.769Z,20.89
2017-02-18T04:52:00.057Z,20.8
2017-02-18T04:52:59.810Z,20.89
2017-02-18T04:53:59.456Z,20.88
2017-02-18T04:55:00.259Z,20.88
2017-02-18T04:55:59.897Z,20.92
2017-02-18T04:57:00.566Z,20.89
2017-02-18T04:58:00.356Z,20.77
2017-02-18T04:58:59.975Z,20.8
2017-02-18T05:00:00.004Z,20.82
2017-02-18T05:01:00.417Z,20.88
2017-02-18T05:02:00.760Z,20.89
2017-02-18T05:03:00.079Z,20.77
2017-02-18T05:04:00.512Z,20.82
2017-02-18T05:05:00.533Z,20.74
2017-02-18T05:06:00.181Z,20.84
2017-02-18T05:07:00.453Z,20.79
2017-02-18T05:08:00.219Z,20.84
2017-02-18T05:08:59.864Z,20.87
2017-02-18T05:10:00.279Z,20.8
2017-02-18T05:11:00.297Z,20.85
2017-02-18T05:11:59.927Z,20.74
2017-02-18T05:13:00.381Z,20.85
2017-02-18T05:14:00.385Z,20.76
2017-02-18T05:15:00.410Z,20.72
2017-02-18T05:16:00.823Z,20.79
2017-02-18T05:17:00.857Z,20.73
2017-02-18T05:18:00.486Z,20.76
2017-02-18T05:19:00.130Z,20.76
2017-02-18T05:20:00.943Z,20.73
2017-02-18T05:21:00.160Z,20.79
2017-02-18T05:22:00.602Z,20.84
2017-02-18T05:23:00.643Z,20.76
2017-02-18T05:24:00.255Z,20.85
2017-02-18T05:25:00.275Z,20.79
2017-02-18T05:26:00.699Z,20.91
2017-02-18T05:27:01.138Z,20.89
2017-02-18T05:28:00.757Z,20.89
2017-02-18T05:29:01.209Z,20.8
2017-02-18T05:30:01.203Z,20.87
2017-02-18T05:31:00.464Z,20.85
2017-02-18T05:32:00.484Z,20.87
2017-02-18T05:33:00.880Z,20.92
2017-02-18T05:34:01.318Z,20.82
2017-02-18T05:35:00.943Z,20.97
2017-02-18T05:36:00.960Z,20.99
2017-02-18T05:37:00.595Z,20.97
2017-02-18T05:38:00.872Z,20.92
2017-02-18T05:39:01.047Z,21.09
2017-02-18T05:40:01.476Z,20.92
2017-02-18T05:41:00.728Z,20.92
2017-02-18T05:42:01.521Z,20.94
2017-02-18T05:43:01.797Z,20.99
2017-02-18T05:44:01.213Z,21.01
2017-02-18T05:45:01.214Z,21.03
2017-02-18T05:46:00.851Z,21.04
2017-02-18T05:47:01.668Z,21.12
2017-02-18T05:48:01.540Z,21.07
2017-02-18T05:49:01.708Z,21.04
2017-02-18T05:50:01.006Z,21.07
2017-02-18T05:51:01.368Z,21.17
2017-02-18T05:52:01.410Z,21.13
2017-02-18T05:53:02.081Z,21.22
2017-02-18T05:54:01.845Z,21.16
2017-02-18T05:55:01.477Z,21.24
2017-02-18T05:56:01.552Z,21.19
2017-02-18T05:57:01.554Z,21.28
2017-02-18T05:58:02.204Z,21.35
2017-02-18T05:59:01.985Z,21.24
2017-02-18T06:00:02.006Z,21.21
2017-02-18T06:01:02.038Z,21.22
2017-02-18T06:02:01.676Z,21.19
2017-02-18T06:03:01.564Z,21.37
2017-02-18T06:04:01.733Z,21.34
2017-02-18T06:05:01.754Z,21.42
2017-02-18T06:06:02.221Z,21.43
2017-02-18T06:07:02.202Z,21.42
2017-02-18T06:08:02.085Z,21.34
2017-02-18T06:09:02.257Z,21.37
2017-02-18T06:10:01.891Z,21.4
2017-02-18T06:11:01.911Z,21.46
2017-02-18T06:12:01.544Z,21.4
2017-02-18T06:13:02.623Z,21.47
2017-02-18T06:14:01.599Z,21.49
2017-02-18T06:15:02.010Z,21.49
2017-02-18T06:16:02.442Z,21.49
2017-02-18T06:17:02.074Z,21.52
2017-02-18T06:18:02.743Z,21.54
2017-02-18T06:19:02.524Z,21.53
2017-02-18T06:20:02.157Z,21.62
2017-02-18T06:21:02.183Z,21.58
2017-02-18T06:22:02.270Z,21.62
2017-02-18T06:23:02.883Z,21.69
2017-02-18T06:24:02.660Z,21.59
2017-02-18T06:25:02.694Z,21.59
2017-02-18T06:26:02.329Z,21.58
2017-02-18T06:27:02.741Z,21.68
2017-02-18T06:28:03.019Z,21.67
2017-02-18T06:29:02.802Z,21.67
2017-02-18T06:30:02.432Z,21.65
2017-02-18T06:31:02.445Z,21.72
2017-02-18T06:32:02.892Z,21.68
2017-02-18T06:33:02.771Z,21.69
2017-02-18T06:34:02.536Z,21.67
2017-02-18T06:35:02.567Z,21.69
2017-02-18T06:36:02.201Z,21.69
2017-02-18T06:37:02.614Z,21.69
2017-02-18T06:38:03.286Z,21.74
2017-02-18T06:39:03.083Z,21.71
2017-02-18T06:40:03.104Z,21.72
2017-02-18T06:41:03.128Z,21.75
2017-02-18T06:42:02.353Z,21.74
2017-02-18T06:43:03.081Z,21.69
2017-02-18T06:44:03.198Z,21.71
2017-02-18T06:45:02.834Z,21.71
2017-02-18T06:46:02.465Z,21.77
2017-02-18T06:47:02.494Z,21.72
2017-02-18T06:48:03.163Z,21.69
2017-02-18T06:49:02.936Z,21.71
2017-02-18T06:50:02.975Z,21.75
2017-02-18T06:51:02.989Z,21.68
2017-02-18T06:52:03.034Z,21.77
2017-02-18T06:53:03.318Z,21.71
2017-02-18T06:54:03.466Z,21.79
2017-02-18T06:55:03.103Z,21.71
2017-02-18T06:56:03.576Z,21.72
2017-02-18T06:57:03.560Z,21.74
2017-02-18T06:58:03.429Z,21.75
2017-02-18T06:59:02.801Z,21.79
2017-02-18T07:00:03.650Z,21.83
2017-02-18T07:01:03.260Z,21.71
2017-02-18T07:02:03.300Z,21.69
2017-02-18T07:03:03.976Z,21.79
2017-02-18T07:04:03.351Z,21.75
2017-02-18T07:05:03.380Z,21.75
2017-02-18T07:06:03.796Z,21.71
2017-02-18T07:07:03.445Z,21.72
2017-02-18T07:08:04.108Z,21.75
2017-02-18T07:09:03.886Z,21.69
2017-02-18T07:10:03.911Z,21.74
2017-02-18T07:11:03.539Z,21.77
2017-02-18T07:12:03.559Z,21.72
2017-02-18T07:13:04.241Z,21.72
2017-02-18T07:14:03.634Z,21.72
2017-02-18T07:15:03.649Z,21.72
2017-02-18T07:16:03.683Z,21.75
2017-02-18T07:17:03.708Z,21.69
2017-02-18T07:18:03.349Z,21.71
2017-02-18T07:19:03.749Z,21.74
2017-02-18T07:20:03.780Z,21.75
2017-02-18T07:21:03.424Z,21.69
2017-02-18T07:22:03.835Z,21.69
2017-02-18T07:23:04.268Z,21.69
2017-02-18T07:24:03.900Z,21.71
2017-02-18T07:25:04.318Z,21.68
2017-02-18T07:26:04.359Z,21.65
2017-02-18T07:27:03.979Z,21.67
2017-02-18T07:28:04.404Z,21.72
2017-02-18T07:29:04.429Z,21.71
2017-02-18T07:30:04.050Z,21.74
2017-02-18T07:31:03.685Z,21.71
2017-02-18T07:32:04.503Z,21.72
2017-02-18T07:33:04.532Z,21.71
2017-02-18T07:34:04.165Z,21.71
2017-02-18T07:35:04.594Z,21.64
2017-02-18T07:36:04.234Z,21.68
2017-02-18T07:37:04.248Z,21.67
2017-02-18T07:38:03.888Z,21.67
2017-02-18T07:39:04.957Z,21.68
2017-02-18T07:40:04.343Z,21.68
2017-02-18T07:41:04.754Z,21.69
2017-02-18T07:42:04.787Z,21.67
2017-02-18T07:43:04.416Z,21.58
2017-02-18T07:44:05.100Z,21.62
2017-02-18T07:45:04.461Z,21.56
2017-02-18T07:46:04.506Z,21.67
2017-02-18T07:47:04.526Z,21.67
2017-02-18T07:48:04.548Z,21.67
2017-02-18T07:49:04.428Z,21.68
2017-02-18T07:50:04.608Z,21.69
2017-02-18T07:51:04.258Z,21.71
2017-02-18T07:52:04.654Z,21.59
2017-02-18T07:53:04.687Z,21.71
2017-02-18T07:54:05.361Z,21.56
2017-02-18T07:55:04.744Z,21.58
2017-02-18T07:56:04.773Z,21.65
2017-02-18T07:57:04.794Z,21.56
2017-02-18T07:58:04.831Z,21.61
2017-02-18T07:59:04.699Z,21.62
2017-02-18T08:00:04.536Z,21.56
2017-02-18T08:01:04.899Z,21.59
2017-02-18T08:02:04.960Z,21.54
2017-02-18T08:03:05.380Z,21.62
2017-02-18T08:04:05.242Z,21.53
2017-02-18T08:05:05.019Z,21.54
2017-02-18T08:06:05.039Z,21.62
2017-02-18T08:07:05.457Z,21.54
2017-02-18T08:08:05.086Z,21.59
2017-02-18T08:09:05.374Z,21.61
2017-02-18T08:10:05.146Z,21.58
2017-02-18T08:11:05.580Z,21.52
2017-02-18T08:12:05.197Z,21.46
2017-02-18T08:13:05.638Z,21.58
2017-02-18T08:14:05.103Z,21.5
2017-02-18T08:15:05.299Z,21.47
2017-02-18T08:16:04.916Z,21.47
2017-02-18T08:17:05.735Z,21.49
2017-02-18T08:18:05.353Z,21.53
2017-02-18T08:19:06.034Z,21.47
2017-02-18T08:20:05.019Z,21.47
2017-02-18T08:21:05.842Z,21.42
2017-02-18T08:22:05.477Z,21.44
2017-02-18T08:23:05.893Z,21.43
2017-02-18T08:24:06.174Z,21.44
2017-02-18T08:25:05.555Z,21.5
2017-02-18T08:26:05.598Z,21.44
2017-02-18T08:27:05.608Z,21.43
2017-02-18T08:28:06.034Z,21.44
2017-02-18T08:29:05.917Z,21.44
2017-02-18T08:30:06.111Z,21.44
2017-02-18T08:31:05.728Z,21.44
2017-02-18T08:32:05.752Z,21.4
2017-02-18T08:33:05.760Z,21.37
2017-02-18T08:34:05.664Z,21.4
2017-02-18T08:35:05.426Z,21.43
2017-02-18T08:36:06.255Z,21.4
2017-02-18T08:37:05.480Z,21.38
2017-02-18T08:38:05.513Z,21.35
2017-02-18T08:39:06.197Z,21.37
2017-02-18T08:40:06.377Z,21.37
2017-02-18T08:41:06.392Z,21.38
2017-02-18T08:42:06.411Z,21.4
2017-02-18T08:43:05.700Z,21.31
2017-02-18T08:44:06.728Z,21.38
2017-02-18T08:45:06.498Z,21.38
2017-02-18T08:46:06.527Z,21.35
2017-02-18T08:47:06.149Z,21.35
2017-02-18T08:48:05.804Z,21.35
2017-02-18T08:49:05.817Z,21.37
2017-02-18T08:50:06.620Z,21.32
2017-02-18T08:51:06.653Z,21.38
2017-02-18T08:52:05.893Z,21.34
2017-02-18T08:53:06.327Z,21.35
2017-02-18T08:54:05.948Z,21.35
2017-02-18T08:55:06.790Z,21.34
2017-02-18T08:56:06.810Z,21.35
2017-02-18T08:57:06.430Z,21.34
2017-02-18T08:58:06.456Z,21.32
2017-02-18T08:59:06.480Z,21.35
2017-02-18T09:00:06.917Z,21.37
2017-02-18T09:01:06.989Z,21.38
2017-02-18T09:02:06.962Z,21.43
2017-02-18T09:03:06.982Z,21.37
2017-02-18T09:04:07.023Z,21.4
2017-02-18T09:05:06.248Z,21.27
2017-02-18T09:06:06.669Z,21.32
2017-02-18T09:07:06.709Z,21.35
2017-02-18T09:08:06.722Z,21.37
2017-02-18T09:09:06.764Z,21.38
2017-02-18T09:10:07.027Z,21.4
2017-02-18T09:11:07.212Z,21.34
2017-02-18T09:12:06.837Z,21.42
2017-02-18T09:13:06.454Z,21.29
2017-02-18T09:14:06.887Z,21.34
2017-02-18T09:15:07.562Z,21.37
2017-02-18T09:16:06.536Z,21.32
2017-02-18T09:17:07.368Z,21.42
2017-02-18T09:18:07.003Z,21.29
2017-02-18T09:19:07.439Z,21.37
2017-02-18T09:20:07.318Z,21.42
2017-02-18T09:21:06.696Z,21.32
2017-02-18T09:22:07.548Z,21.35
2017-02-18T09:23:07.129Z,21.38
2017-02-18T09:24:07.566Z,21.42
2017-02-18T09:25:07.439Z,21.32
2017-02-18T09:26:06.819Z,21.35
2017-02-18T09:27:07.637Z,21.37
2017-02-18T09:28:06.865Z,21.35
2017-02-18T09:29:07.294Z,21.38
2017-02-18T09:30:07.576Z,21.4
2017-02-18T09:31:06.956Z,21.34
2017-02-18T09:32:07.382Z,21.38
2017-02-18T09:33:07.807Z,21.37
2017-02-18T09:34:07.428Z,21.4
2017-02-18T09:35:07.315Z,21.43
2017-02-18T09:36:07.880Z,21.42
2017-02-18T09:37:07.919Z,21.46
2017-02-18T09:38:07.933Z,21.47
2017-02-18T09:39:07.964Z,21.47
2017-02-18T09:40:07.859Z,21.44
2017-02-18T09:41:08.016Z,21.4
2017-02-18T09:42:07.667Z,21.47
2017-02-18T09:43:07.681Z,21.37
2017-02-18T09:44:07.306Z,21.46
2017-02-18T09:45:08.389Z,21.46
2017-02-18T09:46:08.165Z,21.43
2017-02-18T09:47:08.183Z,21.42
2017-02-18T09:48:08.222Z,21.4
2017-02-18T09:49:07.838Z,21.47
2017-02-18T09:50:08.133Z,21.46
2017-02-18T09:51:07.899Z,21.43
2017-02-18T09:52:07.922Z,21.44
2017-02-18T09:53:07.966Z,21.52
2017-02-18T09:54:07.580Z,21.44
2017-02-18T09:55:08.284Z,21.53
2017-02-18T09:56:08.034Z,21.49
2017-02-18T09:57:08.459Z,21.44
2017-02-18T09:58:08.487Z,21.47
2017-02-18T09:59:07.735Z,21.44
2017-02-18T10:00:08.800Z,21.49
2017-02-18T10:01:08.165Z,21.52
2017-02-18T10:02:07.801Z,21.52
2017-02-18T10:03:08.623Z,21.53
2017-02-18T10:04:08.648Z,21.5
2017-02-18T10:05:08.928Z,21.47
2017-02-18T10:06:08.706Z,21.53
2017-02-18T10:07:07.938Z,21.49
2017-02-18T10:08:08.378Z,21.54
2017-02-18T10:09:07.994Z,21.58
2017-02-18T10:10:08.664Z,21.61
2017-02-18T10:11:08.453Z,21.58
2017-02-18T10:12:08.086Z,21.59
2017-02-18T10:13:08.895Z,21.54
2017-02-18T10:14:08.528Z,21.59
2017-02-18T10:15:09.200Z,21.56
2017-02-18T10:16:08.644Z,21.54
2017-02-18T10:17:08.606Z,21.54
2017-02-18T10:18:08.630Z,21.54
2017-02-18T10:19:08.656Z,21.56
2017-02-18T10:20:08.688Z,21.59
2017-02-18T10:21:08.721Z,21.58
2017-02-18T10:22:09.137Z,21.58
2017-02-18T10:23:08.785Z,21.53
2017-02-18T10:24:08.797Z,21.59
2017-02-18T10:25:09.247Z,21.67
2017-02-18T10:26:09.264Z,21.62
2017-02-18T10:27:09.273Z,21.58
2017-02-18T10:28:08.517Z,21.65
2017-02-18T10:29:09.334Z,21.64
2017-02-18T10:30:09.358Z,21.56
2017-02-18T10:31:08.592Z,21.68
2017-02-18T10:32:09.408Z,21.62
2017-02-18T10:33:09.041Z,21.67
2017-02-18T10:34:09.468Z,21.65
2017-02-18T10:35:09.103Z,21.62
2017-02-18T10:36:09.127Z,21.59
2017-02-18T10:37:09.156Z,21.61
2017-02-18T10:38:09.177Z,21.65
2017-02-18T10:39:09.218Z,21.64
2017-02-18T10:40:09.635Z,21.54
2017-02-18T10:41:09.672Z,21.59
2017-02-18T10:42:09.347Z,21.65
2017-02-18T10:43:09.320Z,21.56
2017-02-18T10:44:08.969Z,21.64
2017-02-18T10:45:09.370Z,21.62
2017-02-18T10:46:09.398Z,21.65
2017-02-18T10:47:09.824Z,21.59
2017-02-18T10:48:09.449Z,21.67
2017-02-18T10:49:09.872Z,21.56
2017-02-18T10:50:09.522Z,21.56
2017-02-18T10:51:09.939Z,21.65
2017-02-18T10:52:09.959Z,21.72
2017-02-18T10:53:09.235Z,21.71
2017-02-18T10:54:09.620Z,21.65
2017-02-18T10:55:10.032Z,21.61
2017-02-18T10:56:09.690Z,21.58
2017-02-18T10:57:09.699Z,21.68
2017-02-18T10:58:09.367Z,21.69
2017-02-18T10:59:09.766Z,21.67
2017-02-18T11:00:09.390Z,21.69
2017-02-18T11:01:09.845Z,21.65
2017-02-18T11:02:09.849Z,21.68
2017-02-18T11:03:10.262Z,21.74
2017-02-18T11:04:10.292Z,21.69
2017-02-18T11:05:09.939Z,21.68
2017-02-18T11:06:09.940Z,21.71
2017-02-18T11:07:09.974Z,21.69
2017-02-18T11:08:10.002Z,21.68
2017-02-18T11:09:09.631Z,21.68
2017-02-18T11:10:10.452Z,21.69
2017-02-18T11:11:10.488Z,21.74
2017-02-18T11:12:10.512Z,21.69
2017-02-18T11:13:10.538Z,21.72
2017-02-18T11:14:09.770Z,21.72
2017-02-18T11:15:10.199Z,21.8
2017-02-18T11:16:10.219Z,21.75
2017-02-18T11:17:10.652Z,21.75
2017-02-18T11:18:10.681Z,21.74
2017-02-18T11:19:10.315Z,21.71
2017-02-18T11:20:10.719Z,21.74
2017-02-18T11:21:10.384Z,21.79
2017-02-18T11:22:10.392Z,21.82
2017-02-18T11:23:10.413Z,21.79
2017-02-18T11:24:10.462Z,21.72
2017-02-18T11:25:10.466Z,21.83
2017-02-18T11:26:10.739Z,21.77
2017-02-18T11:27:10.529Z,21.8
2017-02-18T11:28:10.964Z,21.77
2017-02-18T11:29:10.192Z,21.83
2017-02-18T11:30:11.007Z,21.8
2017-02-18T11:31:11.278Z,21.83
2017-02-18T11:32:10.667Z,21.8
2017-02-18T11:33:10.707Z,21.84
2017-02-18T11:34:11.134Z,21.84
2017-02-18T11:35:11.154Z,21.83
2017-02-18T11:36:11.034Z,21.86
2017-02-18T11:37:11.191Z,21.82
2017-02-18T11:38:11.229Z,21.86
2017-02-18T11:39:11.260Z,21.84
2017-02-18T11:40:10.881Z,21.84
2017-02-18T11:41:11.166Z,21.86
2017-02-18T11:42:11.338Z,21.82
2017-02-18T11:43:11.367Z,21.84
2017-02-18T11:44:11.009Z,21.84
2017-02-18T11:45:10.626Z,21.88
2017-02-18T11:46:11.314Z,21.88
2017-02-18T11:47:11.070Z,21.83
2017-02-18T11:48:11.103Z,21.88
2017-02-18T11:49:10.743Z,21.83
2017-02-18T11:50:11.553Z,21.86
2017-02-18T11:51:11.504Z,21.88
2017-02-18T11:52:11.234Z,21.86
2017-02-18T11:53:11.243Z,21.79
2017-02-18T11:54:10.871Z,21.77
2017-02-18T11:55:10.909Z,21.84
2017-02-18T11:56:11.208Z,21.86
2017-02-18T11:57:11.357Z,21.88
2017-02-18T11:58:11.387Z,21.86
2017-02-18T11:59:11.420Z,21.88
2017-02-18T12:00:11.436Z,21.9
2017-02-18T12:01:11.724Z,21.82
2017-02-18T12:02:11.501Z,21.88
2017-02-18T12:03:11.521Z,21.84
2017-02-18T12:04:11.153Z,21.79
2017-02-18T12:05:11.570Z,21.92
2017-02-18T12:06:11.852Z,21.82
2017-02-18T12:07:11.638Z,21.86
2017-02-18T12:08:11.653Z,21.82
2017-02-18T12:09:11.289Z,21.84
2017-02-18T12:10:12.104Z,21.9
2017-02-18T12:11:12.392Z,21.96
2017-02-18T12:12:12.174Z,21.91
2017-02-18T12:13:12.197Z,21.88
2017-02-18T12:14:12.214Z,21.82
2017-02-18T12:15:11.847Z,21.91
2017-02-18T12:16:11.884Z,21.82
2017-02-18T12:17:11.915Z,21.82
2017-02-18T12:18:12.324Z,21.91
2017-02-18T12:19:11.567Z,21.88
2017-02-18T12:20:12.377Z,21.75
2017-02-18T12:21:12.414Z,21.8
2017-02-18T12:22:12.439Z,21.83
2017-02-18T12:23:12.080Z,21.82
2017-02-18T12:24:12.493Z,21.8
2017-02-18T12:25:12.135Z,21.84
2017-02-18T12:26:12.184Z,21.91
2017-02-18T12:27:12.575Z,21.84
2017-02-18T12:28:12.209Z,21.88
2017-02-18T12:29:12.228Z,21.84
2017-02-18T12:30:12.261Z,22
2017-02-18T12:31:12.290Z,21.88
2017-02-18T12:32:12.723Z,21.8
2017-02-18T12:33:12.347Z,21.88
2017-02-18T12:34:11.973Z,21.9
2017-02-18T12:35:12.394Z,21.92
2017-02-18T12:36:12.435Z,21.84
2017-02-18T12:37:12.462Z,21.9
2017-02-18T12:38:12.884Z,21.79
2017-02-18T12:39:12.525Z,21.82
2017-02-18T12:40:12.545Z,21.96
2017-02-18T12:41:12.566Z,21.79
2017-02-18T12:42:12.981Z,21.88
2017-02-18T12:43:12.622Z,21.83
2017-02-18T12:44:12.636Z,21.88
2017-02-18T12:45:12.681Z,21.82
2017-02-18T12:46:12.717Z,21.8
2017-02-18T12:47:13.131Z,21.86
2017-02-18T12:48:12.366Z,21.83
2017-02-18T12:49:13.183Z,21.83
2017-02-18T12:50:13.206Z,21.82
2017-02-18T12:51:13.237Z,21.84
2017-02-18T12:52:13.266Z,21.82
2017-02-18T12:53:12.894Z,21.83
2017-02-18T12:54:12.533Z,21.83
2017-02-18T12:55:12.952Z,21.79